createdAt,value
2022-09-26T00:01:36.731Z,1.33
2022-09-26T00:04:23.014Z,1.45
2022-09-26T00:06:52.796Z,1.50
2022-09-26T00:09:21.174Z,1.40
2022-09-26T00:11:48.727Z,1.33
2022-09-26T00:14:25.315Z,1.60
2022-09-26T00:16:52.817Z,1.42
2022-09-26T00:19:20.077Z,1.40
2022-09-26T00:21:47.430Z,1.48
2022-09-26T00:24:14.820Z,1.77
2022-09-26T00:26:41.508Z,1.30
2022-09-26T00:29:12.011Z,1.50
2022-09-26T00:31:44.086Z,1.63
2022-09-26T00:34:16.987Z,1.55
2022-09-26T00:36:44.037Z,1.50
2022-09-26T00:39:14.580Z,1.48
2022-09-26T00:41:41.644Z,1.58
2022-09-26T00:44:40.055Z,1.88
2022-09-26T00:47:20.300Z,1.80
2022-09-26T00:49:49.652Z,1.67
2022-09-26T00:52:23.821Z,1.80
2022-09-26T00:54:54.784Z,1.70
2022-09-26T00:57:48.468Z,2.40
2022-09-26T01:00:15.674Z,1.80
2022-09-26T01:02:44.704Z,1.80
2022-09-26T01:05:15.902Z,1.95
2022-09-26T01:07:43.145Z,2.00
2022-09-26T01:10:10.247Z,2.20
2022-09-26T01:12:38.068Z,2.35
2022-09-26T01:15:08.953Z,2.25
2022-09-26T01:17:39.191Z,2.50
2022-09-26T01:20:31.396Z,2.20
2022-09-26T01:23:22.928Z,2.13
2022-09-26T01:26:28.409Z,2.00
2022-09-26T01:29:06.818Z,2.17
2022-09-26T01:32:39.580Z,2.28
2022-09-26T01:35:19.385Z,2.55
2022-09-26T01:38:12.400Z,2.63
2022-09-26T01:41:03.366Z,2.35
2022-09-26T01:43:54.878Z,2.10
2022-09-26T01:46:29.211Z,2.30
2022-09-26T01:49:07.161Z,2.28
2022-09-26T01:52:19.595Z,2.40
2022-09-26T01:55:23.794Z,2.63
2022-09-26T01:58:03.427Z,2.60
2022-09-26T02:00:31.977Z,2.28
2022-09-26T02:03:00.440Z,2.55
2022-09-26T02:05:36.586Z,2.20
2022-09-26T02:08:20.894Z,2.20
2022-09-26T02:11:05.244Z,2.30
2022-09-26T02:13:37.765Z,2.03
2022-09-26T02:16:16.249Z,1.98
2022-09-26T02:18:52.397Z,2.42
2022-09-26T02:21:24.029Z,1.95
2022-09-26T02:23:53.371Z,1.83
2022-09-26T02:26:20.233Z,2.03
2022-09-26T02:28:47.505Z,2.22
2022-09-26T02:31:21.888Z,2.70
2022-09-26T02:33:50.487Z,1.90
2022-09-26T02:36:19.956Z,2.53
2022-09-26T02:38:47.117Z,2.17
2022-09-26T02:41:39.637Z,2.20
2022-09-26T02:44:48.209Z,2.00
2022-09-26T02:48:01.232Z,2.17
2022-09-26T02:50:54.722Z,2.70
2022-09-26T02:53:52.324Z,3.45
2022-09-26T02:56:36.873Z,3.03
2022-09-26T02:59:23.613Z,2.42
2022-09-26T03:02:19.857Z,3.10
2022-09-26T03:04:57.828Z,2.35
2022-09-26T03:07:36.633Z,2.28
2022-09-26T03:10:07.485Z,2.13
2022-09-26T03:12:36.065Z,2.28
2022-09-26T03:15:06.202Z,2.30
2022-09-26T03:17:36.222Z,2.33
2022-09-26T03:20:11.100Z,1.83
2022-09-26T03:22:39.917Z,1.75
2022-09-26T03:25:09.964Z,1.80
2022-09-26T03:27:38.334Z,1.80
2022-09-26T03:30:06.192Z,2.75
2022-09-26T03:32:32.844Z,3.40
2022-09-26T03:34:59.480Z,2.17
2022-09-26T03:37:26.173Z,2.58
2022-09-26T03:39:52.821Z,2.00
2022-09-26T03:42:19.565Z,2.25
2022-09-26T03:44:46.266Z,2.25
2022-09-26T03:47:14.973Z,1.92
2022-09-26T03:49:41.636Z,2.00
2022-09-26T03:52:11.683Z,2.03
2022-09-26T03:54:38.684Z,1.80
2022-09-26T03:57:05.373Z,1.95
2022-09-26T03:59:31.984Z,1.50
2022-09-26T04:01:58.636Z,1.88
2022-09-26T04:04:25.369Z,2.03
2022-09-26T04:06:52.065Z,2.30
2022-09-26T04:09:19.107Z,2.38
2022-09-26T04:11:46.575Z,2.05
2022-09-26T04:14:13.314Z,1.70
2022-09-26T04:16:40.067Z,2.25
2022-09-26T04:19:06.917Z,2.05
2022-09-26T04:21:35.329Z,1.70
2022-09-26T04:24:04.483Z,1.60
2022-09-26T04:26:31.152Z,1.63
2022-09-26T04:28:58.952Z,1.63
2022-09-26T04:31:27.749Z,1.92
2022-09-26T04:33:55.295Z,2.17
2022-09-26T04:36:22.441Z,2.50
2022-09-26T04:38:49.344Z,3.20
2022-09-26T04:41:20.051Z,2.65
2022-09-26T04:43:46.893Z,2.60
2022-09-26T04:46:23.751Z,2.92
2022-09-26T04:48:55.418Z,2.65
2022-09-26T04:51:24.311Z,2.67
2022-09-26T04:53:51.998Z,2.80
2022-09-26T04:56:21.279Z,2.83
2022-09-26T04:58:48.424Z,2.80
2022-09-26T05:01:20.160Z,2.55
2022-09-26T05:03:47.488Z,2.33
2022-09-26T05:06:17.446Z,2.35
2022-09-26T05:08:46.330Z,3.00
2022-09-26T05:11:15.581Z,2.53
2022-09-26T05:13:43.720Z,2.40
2022-09-26T05:16:14.392Z,2.33
2022-09-26T05:18:41.745Z,2.72
2022-09-26T05:21:08.874Z,2.40
2022-09-26T05:23:56.069Z,2.65
2022-09-26T05:26:43.038Z,2.45
2022-09-26T05:29:10.478Z,2.15
2022-09-26T05:31:37.971Z,2.20
2022-09-26T05:34:07.612Z,1.88
2022-09-26T05:36:34.480Z,1.92
2022-09-26T05:39:01.767Z,1.95
2022-09-26T05:41:31.058Z,1.95
2022-09-26T05:43:58.426Z,2.65
2022-09-26T05:46:28.042Z,4.68
2022-09-26T05:48:55.500Z,7.38
2022-09-26T05:51:23.258Z,3.47
2022-09-26T05:53:50.391Z,2.30
2022-09-26T05:56:19.621Z,4.90
2022-09-26T05:58:47.191Z,9.48
2022-09-26T06:01:17.039Z,7.13
2022-09-26T06:03:45.943Z,5.05
2022-09-26T06:06:15.903Z,5.95
2022-09-26T06:08:43.812Z,6.00
2022-09-26T06:11:17.785Z,5.38
2022-09-26T06:13:45.724Z,12.38
2022-09-26T06:16:19.409Z,6.07
2022-09-26T06:18:48.176Z,3.88
2022-09-26T06:21:17.414Z,3.50
2022-09-26T06:23:47.086Z,3.15
2022-09-26T06:26:20.988Z,3.20
2022-09-26T06:28:49.884Z,3.97
2022-09-26T06:31:18.705Z,5.32
2022-09-26T06:33:53.152Z,6.07
2022-09-26T06:36:21.861Z,6.45
2022-09-26T06:38:49.103Z,5.93
2022-09-26T06:41:16.307Z,6.00
2022-09-26T06:43:45.142Z,6.07
2022-09-26T06:46:15.857Z,4.55
2022-09-26T06:48:45.655Z,5.03
2022-09-26T06:51:15.196Z,3.55
2022-09-26T06:53:44.475Z,3.50
2022-09-26T06:56:11.705Z,3.10
2022-09-26T06:58:39.118Z,6.80
2022-09-26T07:01:09.898Z,20.63
2022-09-26T07:03:37.904Z,6.07
2022-09-26T07:06:07.404Z,3.03
2022-09-26T07:09:01.051Z,5.00
2022-09-26T07:11:38.284Z,5.70
2022-09-26T07:14:08.005Z,4.18
2022-09-26T07:16:34.723Z,1.85
2022-09-26T07:19:01.324Z,2.55
2022-09-26T07:21:27.900Z,2.17
2022-09-26T07:23:57.357Z,1.27
2022-09-26T07:26:24.059Z,1.83
2022-09-26T07:28:54.962Z,1.50
2022-09-26T07:31:23.518Z,1.02
2022-09-26T07:33:50.206Z,1.10
2022-09-26T07:36:18.338Z,0.70
2022-09-26T07:38:48.419Z,0.60
2022-09-26T07:41:15.532Z,0.70
2022-09-26T07:44:30.235Z,0.70
2022-09-26T07:46:47.651Z,0.60
2022-09-26T07:49:32.791Z,0.60
2022-09-26T07:52:00.167Z,1.00
2022-09-26T07:54:26.902Z,0.90
2022-09-26T07:56:55.089Z,0.63
2022-09-26T07:59:22.773Z,1.15
2022-09-26T08:01:49.650Z,0.60
2022-09-26T08:04:18.556Z,0.70
2022-09-26T08:06:45.157Z,1.40
2022-09-26T08:09:13.338Z,1.10
2022-09-26T08:11:40.802Z,1.00
2022-09-26T08:14:07.545Z,0.40
2022-09-26T08:16:34.369Z,0.65
2022-09-26T08:19:01.581Z,2.63
2022-09-26T08:21:28.227Z,1.30
2022-09-26T08:23:55.617Z,1.55
2022-09-26T08:26:24.569Z,2.35
2022-09-26T08:28:51.352Z,0.85
2022-09-26T08:31:18.551Z,0.70
2022-09-26T08:33:45.302Z,0.50
2022-09-26T08:36:15.152Z,0.70
2022-09-26T08:38:49.896Z,1.10
2022-09-26T08:41:49.758Z,1.10
2022-09-26T08:44:45.529Z,0.57
2022-09-26T08:47:42.664Z,0.85
2022-09-26T08:50:50.736Z,0.63
2022-09-26T08:53:24.063Z,0.60
2022-09-26T08:55:53.567Z,0.43
2022-09-26T08:58:37.779Z,0.40
2022-09-26T09:01:14.190Z,0.40
2022-09-26T09:03:57.740Z,0.85
2022-09-26T09:06:28.181Z,0.55
2022-09-26T09:08:56.570Z,0.60
2022-09-26T09:11:50.237Z,0.98
2022-09-26T09:14:36.181Z,0.77
2022-09-26T09:17:20.337Z,0.40
2022-09-26T09:20:32.950Z,0.98
2022-09-26T09:23:20.038Z,0.60
2022-09-26T09:29:27.426Z,0.57
2022-09-26T09:31:56.755Z,0.43
2022-09-26T09:34:39.020Z,0.63
2022-09-26T09:37:18.321Z,0.68
2022-09-26T09:39:48.885Z,0.73
2022-09-26T09:42:40.632Z,0.80
2022-09-26T09:45:23.803Z,0.75
2022-09-26T09:47:50.397Z,0.50
2022-09-26T09:50:41.712Z,0.88
2022-09-26T09:53:55.745Z,0.80
2022-09-26T09:57:16.511Z,0.57
2022-09-26T10:00:15.869Z,0.73
2022-09-26T10:03:02.035Z,3.47
2022-09-26T10:05:51.536Z,0.70
2022-09-26T10:08:35.780Z,1.00
2022-09-26T10:11:30.720Z,0.68
2022-09-26T10:14:07.075Z,0.70
2022-09-26T10:16:35.426Z,0.88
2022-09-26T10:19:07.935Z,0.90
2022-09-26T10:21:48.401Z,1.00
2022-09-26T10:24:45.351Z,0.95
2022-09-26T10:27:36.804Z,1.33
2022-09-26T10:30:30.252Z,0.95
2022-09-26T10:33:01.853Z,1.15
2022-09-26T10:35:46.053Z,0.70
2022-09-26T10:38:27.810Z,1.10
2022-09-26T10:41:01.268Z,1.20
2022-09-26T10:43:37.876Z,1.33
2022-09-26T10:46:15.540Z,1.05
2022-09-26T10:48:53.697Z,2.83
2022-09-26T10:51:37.921Z,1.10
2022-09-26T10:54:17.015Z,1.00
2022-09-26T10:56:48.589Z,1.10
2022-09-26T10:59:18.293Z,1.15
2022-09-26T11:01:51.253Z,1.13
2022-09-26T11:04:41.808Z,1.20
2022-09-26T11:07:24.378Z,1.25
2022-09-26T11:09:59.881Z,2.20
2022-09-26T11:12:35.211Z,1.33
2022-09-26T11:15:08.851Z,1.23
2022-09-26T11:17:51.482Z,1.48
2022-09-26T11:20:50.548Z,1.50
2022-09-26T11:23:37.371Z,1.00
2022-09-26T11:26:29.704Z,1.20
2022-09-26T11:29:34.291Z,1.08
2022-09-26T11:32:01.299Z,1.48
2022-09-26T11:34:31.295Z,1.40
2022-09-26T11:37:30.786Z,1.58
2022-09-26T11:40:09.974Z,2.03
2022-09-26T11:42:59.890Z,1.30
2022-09-26T11:45:47.620Z,1.25
2022-09-26T11:48:31.512Z,1.00
2022-09-26T11:51:52.244Z,1.00
2022-09-26T11:54:42.677Z,1.00
2022-09-26T11:57:45.285Z,0.98
2022-09-26T12:00:15.909Z,1.00
2022-09-26T12:03:33.167Z,1.13
2022-09-26T12:06:22.730Z,1.20
2022-09-26T12:09:24.252Z,1.10
2022-09-26T12:12:19.551Z,1.10
2022-09-26T12:14:54.953Z,1.10
2022-09-26T12:17:54.744Z,1.20
2022-09-26T12:20:37.528Z,0.98
2022-09-26T12:23:31.081Z,1.25
2022-09-26T12:26:16.895Z,0.90
2022-09-26T12:29:28.352Z,1.00
2022-09-26T12:32:23.575Z,1.00
2022-09-26T12:35:29.022Z,1.20
2022-09-26T12:38:32.636Z,2.70
2022-09-26T12:41:23.151Z,1.33
2022-09-26T12:44:31.181Z,1.25
2022-09-26T12:47:21.981Z,1.10
2022-09-26T12:50:24.779Z,1.02
2022-09-26T12:53:28.507Z,1.30
2022-09-26T12:56:07.377Z,1.38
2022-09-26T12:59:22.890Z,1.58
2022-09-26T13:02:00.464Z,1.00
2022-09-26T13:05:14.838Z,1.00
2022-09-26T13:08:19.600Z,0.95
2022-09-26T13:11:05.086Z,1.17
2022-09-26T13:14:14.548Z,1.38
2022-09-26T13:17:11.315Z,1.10
2022-09-26T13:19:54.267Z,1.40
2022-09-26T13:23:03.011Z,1.00
2022-09-26T13:26:14.087Z,0.90
2022-09-26T13:29:22.968Z,1.10
2022-09-26T13:31:59.710Z,1.30
2022-09-26T13:34:38.846Z,1.00
2022-09-26T13:37:22.561Z,1.00
2022-09-26T13:40:16.242Z,1.00
2022-09-26T13:43:02.706Z,0.82
2022-09-26T13:45:53.066Z,1.00
2022-09-26T13:48:49.926Z,1.05
2022-09-26T13:51:49.409Z,1.10
2022-09-26T13:54:53.888Z,1.23
2022-09-26T13:57:35.430Z,0.80
2022-09-26T14:00:25.672Z,1.00
2022-09-26T14:03:10.165Z,1.00
2022-09-26T14:05:46.359Z,0.93
2022-09-26T14:08:51.166Z,1.90
2022-09-26T14:11:32.506Z,1.10
2022-09-26T14:14:21.273Z,1.50
2022-09-26T14:16:56.668Z,1.25
2022-09-26T14:19:55.536Z,1.17
2022-09-26T14:22:25.538Z,1.60
2022-09-26T14:24:53.678Z,1.35
2022-09-26T14:27:48.241Z,1.23
2022-09-26T14:30:29.144Z,1.40
2022-09-26T14:33:11.003Z,1.40
2022-09-26T14:35:38.876Z,2.00
2022-09-26T14:38:15.401Z,1.65
2022-09-26T14:40:57.871Z,1.23
2022-09-26T14:43:37.231Z,1.40
2022-09-26T14:46:13.681Z,1.50
2022-09-26T14:48:42.745Z,1.40
2022-09-26T14:51:15.928Z,1.40
2022-09-26T14:53:48.003Z,1.58
2022-09-26T14:56:27.062Z,1.60
2022-09-26T14:58:54.977Z,2.17
2022-09-26T15:01:37.417Z,2.42
2022-09-26T15:04:19.160Z,2.10
2022-09-26T15:07:01.931Z,2.03
2022-09-26T15:09:55.163Z,1.33
2022-09-26T15:12:29.790Z,1.65
2022-09-26T15:15:16.115Z,1.70
2022-09-26T15:17:58.187Z,1.60
2022-09-26T15:21:08.894Z,1.80
2022-09-26T15:23:51.207Z,1.70
2022-09-26T15:26:25.566Z,1.95
2022-09-26T15:28:54.572Z,1.58
2022-09-26T15:31:35.779Z,1.05
2022-09-26T15:34:13.257Z,1.55
2022-09-26T15:36:40.931Z,1.10
2022-09-26T15:39:32.703Z,1.30
2022-09-26T15:42:20.972Z,1.50
2022-09-26T15:44:55.246Z,1.50
2022-09-26T15:47:31.256Z,1.60
2022-09-26T15:50:10.281Z,1.40
2022-09-26T15:52:46.397Z,1.13
2022-09-26T15:55:24.576Z,1.38
2022-09-26T15:57:55.213Z,1.60
2022-09-26T16:00:21.977Z,2.00
2022-09-26T16:02:48.983Z,3.40
2022-09-26T16:05:16.325Z,3.47
2022-09-26T16:07:49.165Z,2.35
2022-09-26T16:10:30.287Z,3.45
2022-09-26T16:13:00.310Z,4.32
2022-09-26T16:15:31.199Z,3.00
2022-09-26T16:17:58.708Z,4.70
2022-09-26T16:20:29.063Z,3.58
2022-09-26T16:23:04.717Z,2.20
2022-09-26T16:25:53.296Z,1.85
2022-09-26T16:28:39.317Z,1.92
2022-09-26T16:31:08.258Z,1.60
2022-09-26T16:33:39.059Z,2.28
2022-09-26T16:36:21.551Z,2.10
2022-09-26T16:38:56.931Z,2.38
2022-09-26T16:42:00.641Z,2.60
2022-09-26T16:44:36.868Z,3.58
2022-09-26T16:47:29.707Z,3.45
2022-09-26T16:49:56.358Z,5.25
2022-09-26T16:52:36.341Z,3.50
2022-09-26T16:55:06.057Z,2.58
2022-09-26T16:57:39.867Z,2.70
2022-09-26T17:00:36.408Z,1.83
2022-09-26T17:03:16.304Z,1.63
2022-09-26T17:05:42.967Z,1.83
2022-09-26T17:08:10.862Z,1.58
2022-09-26T17:10:38.072Z,1.88
2022-09-26T17:13:05.885Z,1.58
2022-09-26T17:15:34.657Z,1.85
2022-09-26T17:18:05.918Z,2.78
2022-09-26T17:20:32.560Z,1.90
2022-09-26T17:23:08.005Z,3.58
2022-09-26T17:25:52.976Z,4.80
2022-09-26T17:28:33.767Z,3.25
2022-09-26T17:31:06.212Z,2.60
2022-09-26T17:33:37.797Z,1.65
2022-09-26T17:36:05.020Z,2.17
2022-09-26T17:38:34.551Z,1.67
2022-09-26T17:41:03.545Z,1.95
2022-09-26T17:43:30.896Z,2.88
2022-09-26T17:45:58.302Z,3.83
2022-09-26T17:48:28.684Z,2.53
2022-09-26T17:50:56.202Z,2.53
2022-09-26T17:53:25.373Z,2.95
2022-09-26T17:55:53.050Z,3.90
2022-09-26T17:58:19.862Z,4.20
2022-09-26T18:00:50.157Z,5.43
2022-09-26T18:03:23.389Z,6.43
2022-09-26T18:05:50.610Z,18.60
2022-09-26T18:08:21.546Z,7.30
2022-09-26T18:10:55.099Z,5.90
2022-09-26T18:13:26.455Z,5.68
2022-09-26T18:15:55.381Z,3.78
2022-09-26T18:18:25.365Z,3.70
2022-09-26T18:20:53.849Z,3.22
2022-09-26T18:23:26.272Z,2.38
2022-09-26T18:25:58.922Z,1.95
2022-09-26T18:28:26.281Z,2.40
2022-09-26T18:30:58.357Z,2.10
2022-09-26T18:33:27.779Z,1.63
2022-09-26T18:35:55.338Z,1.73
2022-09-26T18:38:22.208Z,1.85
2022-09-26T18:40:58.737Z,1.35
2022-09-26T18:43:31.735Z,1.27
2022-09-26T18:45:59.384Z,0.95
2022-09-26T18:48:32.889Z,1.00
2022-09-26T18:51:00.368Z,1.67
2022-09-26T18:53:30.203Z,1.50
2022-09-26T18:56:15.658Z,1.30
2022-09-26T18:58:42.449Z,1.20
2022-09-26T19:01:22.812Z,1.20
2022-09-26T19:03:49.828Z,2.55
2022-09-26T19:06:20.689Z,1.83
2022-09-26T19:08:51.317Z,1.10
2022-09-26T19:11:23.882Z,1.20
2022-09-26T19:13:56.448Z,3.70
2022-09-26T19:16:24.556Z,3.17
2022-09-26T19:18:51.789Z,1.83
2022-09-26T19:21:41.202Z,2.53
2022-09-26T19:24:22.914Z,1.90
2022-09-26T19:27:05.961Z,1.48
2022-09-26T19:29:40.597Z,1.10
2022-09-26T19:32:17.223Z,1.63
2022-09-26T19:34:53.596Z,0.90
2022-09-26T19:37:20.519Z,1.20
2022-09-26T19:39:47.349Z,0.95
2022-09-26T19:42:15.744Z,2.15
2022-09-26T19:44:43.058Z,0.80
2022-09-26T19:47:22.254Z,1.30
2022-09-26T19:49:51.798Z,1.83
2022-09-26T19:52:20.849Z,2.70
2022-09-26T19:54:48.723Z,1.77
2022-09-26T19:57:18.178Z,3.17
2022-09-26T19:59:46.197Z,2.92
2022-09-26T20:02:22.902Z,2.95
2022-09-26T20:04:51.490Z,1.85
2022-09-26T20:07:19.852Z,2.28
2022-09-26T20:09:47.541Z,2.08
2022-09-26T20:12:14.781Z,3.08
2022-09-26T20:14:41.653Z,1.88
2022-09-26T20:17:23.320Z,1.65
2022-09-26T20:19:53.149Z,1.10
2022-09-26T20:22:24.432Z,1.30
2022-09-26T20:24:55.417Z,1.10
2022-09-26T20:27:28.471Z,1.38
2022-09-26T20:30:15.014Z,0.90
2022-09-26T20:32:42.141Z,0.90
2022-09-26T20:35:15.246Z,1.10
2022-09-26T20:37:42.754Z,1.10
2022-09-26T20:40:22.624Z,0.65
2022-09-26T20:42:58.511Z,1.05
2022-09-26T20:45:36.892Z,1.13
2022-09-26T20:48:05.814Z,1.08
2022-09-26T20:50:38.378Z,1.10
2022-09-26T20:53:18.018Z,0.82
2022-09-26T20:55:46.114Z,1.20
2022-09-26T20:58:13.251Z,0.90
2022-09-26T21:00:41.723Z,0.60
2022-09-26T21:03:11.394Z,0.70
2022-09-26T21:05:39.022Z,0.77
2022-09-26T21:08:18.971Z,0.70
2022-09-26T21:10:45.682Z,0.82
2022-09-26T21:13:12.407Z,0.73
2022-09-26T21:15:43.023Z,0.60
2022-09-26T21:18:25.703Z,0.75
2022-09-26T21:20:53.779Z,0.80
2022-09-26T21:23:22.300Z,0.77
2022-09-26T21:25:49.117Z,0.70
2022-09-26T21:28:26.819Z,0.70
2022-09-26T21:30:57.734Z,1.20
2022-09-26T21:33:24.715Z,1.08
2022-09-26T21:35:52.203Z,0.60
2022-09-26T21:38:20.694Z,1.02
2022-09-26T21:40:54.310Z,0.85
2022-09-26T21:43:26.747Z,0.70
2022-09-26T21:45:53.526Z,1.30
2022-09-26T21:48:20.311Z,1.38
2022-09-26T21:50:58.317Z,1.05
2022-09-26T21:54:06.084Z,0.52
2022-09-26T21:56:46.564Z,0.50
2022-09-26T21:59:13.279Z,0.57
2022-09-26T22:01:40.042Z,0.70
2022-09-26T22:04:06.786Z,0.60
2022-09-26T22:06:33.764Z,0.60
2022-09-26T22:09:00.434Z,0.82
2022-09-26T22:11:27.258Z,0.40
2022-09-26T22:13:53.975Z,0.60
2022-09-26T22:16:20.712Z,1.48
2022-09-26T22:18:47.527Z,1.13
2022-09-26T22:21:14.211Z,1.33
2022-09-26T22:23:41.303Z,2.85
2022-09-26T22:26:08.319Z,4.25
2022-09-26T22:28:35.600Z,4.75
2022-09-26T22:31:05.667Z,0.90
2022-09-26T22:33:33.006Z,0.80
2022-09-26T22:36:00.073Z,0.68
2022-09-26T22:38:26.812Z,1.50
2022-09-26T22:41:05.199Z,1.00
2022-09-26T22:43:34.163Z,1.40
2022-09-26T22:46:07.571Z,1.08
2022-09-26T22:48:41.602Z,0.70
2022-09-26T22:51:09.016Z,1.00
2022-09-26T22:53:38.615Z,1.35
2022-09-26T22:56:08.116Z,1.33
2022-09-26T22:58:46.811Z,1.60
2022-09-26T23:01:17.644Z,1.20
2022-09-26T23:03:44.490Z,1.10
2022-09-26T23:06:11.988Z,1.45
2022-09-26T23:08:41.459Z,1.30
2022-09-26T23:11:11.372Z,0.60
2022-09-26T23:13:39.419Z,0.50
2022-09-26T23:16:11.731Z,0.40
2022-09-26T23:18:41.344Z,0.43
2022-09-26T23:21:15.275Z,0.60
2022-09-26T23:23:44.937Z,0.90
2022-09-26T23:26:21.483Z,0.80
2022-09-26T23:28:51.907Z,0.50
2022-09-26T23:31:19.516Z,0.60
2022-09-26T23:33:47.047Z,0.40
2022-09-26T23:36:14.413Z,0.50
2022-09-26T23:38:41.602Z,0.40
2022-09-26T23:41:10.477Z,0.45
2022-09-26T23:43:37.329Z,0.35
2022-09-26T23:46:05.014Z,0.40
2022-09-26T23:48:32.180Z,0.43
2022-09-26T23:50:59.122Z,0.45
2022-09-26T23:53:26.215Z,0.40
2022-09-26T23:55:53.314Z,0.40
2022-09-26T23:58:20.200Z,0.30
